Time;durP1;ratioP1;P1;durP2;ratioP2;P2;SDS_P1;SDS_P2;PMS_P1;PMS_P2;Temp;Humidity;BMP_temperature;BMP_pressure;BME280_temperature;BME280_humidity;BME280_pressure;Samples;Min_cycle;Max_cycle;Signal;HPM_P1;HPM_P2
2022/05/11 00:02:07;;;;;;;6.30;2.10;;;18.20;99.90;;;;;;5095623;28;20176;-67
2022/05/11 00:04:35;;;;;;;8.20;1.67;;;18.20;99.90;;;;;;5095412;28;20266;-67
2022/05/11 00:07:03;;;;;;;7.37;1.80;;;18.30;99.90;;;;;;5095349;28;20201;-67
2022/05/11 00:09:30;;;;;;;8.20;1.50;;;18.30;99.90;;;;;;5095145;28;20222;-67
2022/05/11 00:11:58;;;;;;;5.27;1.23;;;18.20;99.90;;;;;;5094934;28;20238;-67
2022/05/11 00:14:26;;;;;;;6.33;1.63;;;18.20;99.90;;;;;;5095507;28;20183;-67
2022/05/11 00:16:56;;;;;;;9.00;2.10;;;18.20;99.90;;;;;;5093900;28;20321;-67
2022/05/11 00:19:24;;;;;;;6.20;1.33;;;18.20;99.90;;;;;;5095120;28;20192;-67
2022/05/11 00:21:52;;;;;;;6.27;1.40;;;18.20;99.90;;;;;;5095419;28;20224;-67
2022/05/11 00:24:19;;;;;;;6.10;2.00;;;18.30;99.90;;;;;;5095200;28;20190;-68
2022/05/11 00:26:47;;;;;;;8.23;2.00;;;18.30;99.90;;;;;;5094968;28;20332;-68
2022/05/11 00:29:15;;;;;;;7.87;1.93;;;18.20;99.90;;;;;;5094064;28;20546;-67
2022/05/11 00:31:43;;;;;;;9.93;1.87;;;18.30;99.90;;;;;;5095153;28;20183;-68
2022/05/11 00:34:11;;;;;;;8.93;1.60;;;18.20;99.90;;;;;;5095072;28;20637;-67
2022/05/11 00:36:39;;;;;;;7.40;1.67;;;18.20;99.90;;;;;;5094734;28;20663;-66
2022/05/11 00:39:06;;;;;;;7.63;1.57;;;18.20;99.90;;;;;;5094641;28;20186;-67
2022/05/11 00:41:34;;;;;;;8.17;1.97;;;18.20;99.90;;;;;;5094512;28;20179;-68
2022/05/11 00:44:02;;;;;;;9.90;2.07;;;18.20;99.90;;;;;;5093536;28;20551;-68
2022/05/11 00:46:49;;;;;;;12.13;1.90;;;18.20;99.90;;;;;;5094513;28;20175;-67
2022/05/11 00:49:35;;;;;;;8.33;2.20;;;18.10;99.90;;;;;;5094929;28;20301;-67
2022/05/11 00:52:13;;;;;;;6.90;2.00;;;18.00;99.90;;;;;;5094353;28;20371;-66
2022/05/11 00:54:49;;;;;;;13.67;2.70;;;17.70;99.90;;;;;;5090629;28;20630;-67
2022/05/11 00:57:22;;;;;;;10.87;2.90;;;17.60;99.90;;;;;;5093945;28;20303;-66
2022/05/11 00:59:52;;;;;;;10.17;3.07;;;17.50;99.90;;;;;;5094477;28;20183;-67
2022/05/11 01:02:23;;;;;;;10.33;3.07;;;17.50;99.90;;;;;;5094553;28;20172;-67
2022/05/11 01:04:54;;;;;;;8.27;2.93;;;17.50;99.90;;;;;;5094504;28;20185;-67
2022/05/11 01:07:22;;;;;;;8.37;2.23;;;17.50;99.90;;;;;;5094120;28;20180;-67
2022/05/11 01:09:50;;;;;;;8.50;2.67;;;17.40;99.90;;;;;;5094296;28;20171;-67
2022/05/11 01:12:20;;;;;;;10.23;2.23;;;17.40;99.90;;;;;;5093013;28;20747;-68
2022/05/11 01:14:57;;;;;;;9.07;2.00;;;17.50;99.90;;;;;;5094071;28;20213;-68
2022/05/11 01:17:25;;;;;;;15.50;2.93;;;17.50;99.90;;;;;;5094088;28;20507;-68
2022/05/11 01:19:53;;;;;;;7.67;2.20;;;17.60;99.90;;;;;;5094156;28;20190;-68
2022/05/11 01:22:25;;;;;;;9.00;2.23;;;17.60;99.90;;;;;;5092872;28;20175;-68
2022/05/11 01:24:52;;;;;;;9.73;2.40;;;17.50;99.90;;;;;;5094137;28;20193;-68
2022/05/11 01:27:35;;;;;;;9.17;2.43;;;17.50;99.90;;;;;;5093870;28;20212;-68
2022/05/11 01:30:13;;;;;;;10.23;2.10;;;17.40;99.90;;;;;;5094081;28;20675;-67
2022/05/11 01:32:43;;;;;;;11.73;2.37;;;17.40;99.90;;;;;;5082374;28;20215;-68
2022/05/11 01:35:33;;;;;;;10.63;2.20;;;17.30;99.90;;;;;;5093677;28;20183;-67
2022/05/11 01:38:08;;;;;;;8.87;2.67;;;17.40;99.90;;;;;;5090848;28;20226;-66
2022/05/11 01:40:36;;;;;;;6.50;1.97;;;17.40;99.90;;;;;;5093386;28;20177;-68
2022/05/11 01:43:03;;;;;;;7.83;2.00;;;17.40;99.90;;;;;;5093372;28;20268;-68
2022/05/11 01:45:31;;;;;;;8.13;2.03;;;17.60;99.90;;;;;;5092994;28;20843;-67
2022/05/11 01:47:59;;;;;;;6.43;1.70;;;17.70;99.90;;;;;;5093129;28;20213;-67
2022/05/11 01:50:28;;;;;;;10.97;1.90;;;17.70;99.90;;;;;;5092194;28;20190;-68
2022/05/11 01:52:55;;;;;;;11.00;2.30;;;17.80;99.90;;;;;;5090639;28;20270;-67
2022/05/11 01:55:23;;;;;;;10.00;2.40;;;17.70;99.90;;;;;;5093006;28;20231;-68
2022/05/11 01:57:51;;;;;;;7.60;1.87;;;17.70;99.90;;;;;;5093373;28;20190;-66
2022/05/11 02:00:19;;;;;;;6.67;2.03;;;17.60;99.90;;;;;;5093406;28;20202;-67
2022/05/11 02:02:47;;;;;;;12.47;2.60;;;17.70;99.90;;;;;;5093265;28;20807;-67
2022/05/11 02:08:00;;;;;;;5.57;1.93;;;17.60;99.90;;;;;;5093398;28;20227;-67
2022/05/11 02:10:28;;;;;;;11.63;2.03;;;17.60;99.90;;;;;;5093133;28;20183;-67
2022/05/11 02:12:57;;;;;;;8.17;1.73;;;17.60;99.90;;;;;;5093099;28;20688;-68
2022/05/11 02:15:26;;;;;;;7.70;1.80;;;17.70;99.90;;;;;;5092997;28;20168;-68
2022/05/11 02:17:54;;;;;;;5.07;1.67;;;17.70;99.90;;;;;;5093149;28;20191;-68
2022/05/11 02:20:23;;;;;;;9.03;1.73;;;17.70;99.90;;;;;;5092948;28;20171;-67
2022/05/11 02:22:51;;;;;;;5.03;1.77;;;17.60;99.90;;;;;;5092744;28;20185;-67
2022/05/11 02:25:20;;;;;;;9.50;1.80;;;17.60;99.90;;;;;;5092805;28;20186;-67
2022/05/11 02:27:50;;;;;;;9.00;2.27;;;17.50;99.90;;;;;;5092820;28;20204;-69
2022/05/11 02:30:30;;;;;;;7.43;1.87;;;17.50;99.90;;;;;;5092864;28;20700;-67
2022/05/11 02:32:58;;;;;;;8.57;1.80;;;17.50;99.90;;;;;;5092825;28;20207;-67
2022/05/11 02:35:26;;;;;;;11.10;2.40;;;17.40;99.90;;;;;;5092904;28;20628;-69
2022/05/11 02:38:00;;;;;;;8.73;2.00;;;17.40;99.90;;;;;;5092712;28;20179;-68
2022/05/11 02:40:31;;;;;;;10.30;2.37;;;17.40;99.90;;;;;;5091496;28;20190;-68
2022/05/11 02:43:01;;;;;;;10.00;1.77;;;17.40;99.90;;;;;;5092643;28;20167;-68
2022/05/11 02:45:30;;;;;;;11.40;2.00;;;17.40;99.90;;;;;;5092714;28;20270;-67
2022/05/11 02:47:58;;;;;;;6.83;1.73;;;17.40;99.90;;;;;;5092470;28;20706;-68
2022/05/11 02:50:35;;;;;;;7.27;1.90;;;17.50;99.90;;;;;;5092466;28;20175;-67
2022/05/11 02:53:07;;;;;;;9.17;2.67;;;17.50;99.90;;;;;;5092473;28;20280;-67
2022/05/11 02:55:41;;;;;;;9.37;2.10;;;17.40;99.90;;;;;;5092301;28;20695;-68
2022/05/11 02:58:09;;;;;;;12.73;2.50;;;17.50;99.90;;;;;;5092341;28;20558;-68
2022/05/11 03:00:38;;;;;;;11.50;2.50;;;17.60;99.90;;;;;;5092320;28;20275;-68
2022/05/11 03:03:07;;;;;;;9.17;2.33;;;17.60;99.90;;;;;;5092101;28;20542;-68
2022/05/11 03:05:35;;;;;;;10.63;2.33;;;17.60;99.90;;;;;;5092375;28;20201;-67
2022/05/11 03:08:03;;;;;;;8.93;2.17;;;17.70;99.90;;;;;;5092297;28;20215;-67
2022/05/11 03:10:31;;;;;;;9.97;2.30;;;17.70;99.90;;;;;;5092025;28;20224;-68
2022/05/11 03:12:59;;;;;;;8.83;2.23;;;17.70;99.90;;;;;;5091672;28;20216;-68
2022/05/11 03:15:28;;;;;;;8.73;1.90;;;17.70;99.90;;;;;;5092487;28;20191;-68
2022/05/11 03:17:55;;;;;;;6.30;2.80;;;17.80;99.90;;;;;;5090702;28;20186;-67
2022/05/11 03:20:23;;;;;;;8.90;2.53;;;17.80;99.90;;;;;;5092004;28;20205;-66
2022/05/11 03:22:51;;;;;;;7.87;1.70;;;17.90;99.90;;;;;;5091814;28;20656;-67
2022/05/11 03:25:20;;;;;;;9.73;3.07;;;17.80;99.90;;;;;;5092084;28;20180;-67
2022/05/11 03:27:49;;;;;;;9.97;2.30;;;17.80;99.90;;;;;;5091691;28;20187;-67
2022/05/11 03:30:17;;;;;;;9.53;2.27;;;17.90;99.90;;;;;;5091611;28;20703;-68
2022/05/11 03:35:32;;;;;;;6.77;1.87;;;17.90;99.90;;;;;;5092407;28;20186;-67
2022/05/11 03:37:59;;;;;;;10.10;2.50;;;18.00;99.90;;;;;;5091663;28;20594;-67
2022/05/11 03:40:27;;;;;;;9.80;2.50;;;18.00;99.90;;;;;;5091586;28;20232;-67
2022/05/11 03:42:55;;;;;;;11.97;4.23;;;18.00;99.90;;;;;;5092488;28;20230;-67
2022/05/11 03:45:25;;;;;;;10.23;2.70;;;18.10;99.90;;;;;;5091240;28;20191;-67
2022/05/11 03:47:53;;;;;;;10.63;2.13;;;18.10;99.90;;;;;;5091004;28;20219;-67
2022/05/11 03:50:24;;;;;;;5.67;2.10;;;18.10;99.90;;;;;;5091564;28;20504;-69
2022/05/11 03:52:54;;;;;;;7.17;2.20;;;18.00;99.90;;;;;;5091870;28;20211;-68
2022/05/11 03:55:23;;;;;;;9.23;2.30;;;18.00;99.90;;;;;;5090259;28;20234;-67
2022/05/11 03:57:51;;;;;;;7.87;2.17;;;17.90;99.90;;;;;;5090791;28;20641;-67
2022/05/11 04:00:22;;;;;;;7.53;2.07;;;17.90;99.90;;;;;;5095030;28;20333;-68
2022/05/11 04:02:54;;;;;;;11.30;2.43;;;17.80;99.90;;;;;;5091573;28;20176;-67
2022/05/11 04:05:24;;;;;;;9.30;2.23;;;17.80;99.90;;;;;;5091871;28;20172;-68
2022/05/11 04:07:52;;;;;;;6.93;2.37;;;17.90;99.90;;;;;;5091296;28;20182;-68
2022/05/11 04:10:20;;;;;;;8.73;2.13;;;17.90;99.90;;;;;;5091459;28;20215;-68
2022/05/11 04:12:48;;;;;;;9.47;2.27;;;17.80;99.90;;;;;;5091426;28;20219;-67
2022/05/11 04:15:17;;;;;;;9.80;2.70;;;17.80;99.90;;;;;;5091662;28;20218;-67
2022/05/11 04:17:45;;;;;;;4.83;2.30;;;17.80;99.90;;;;;;5091231;28;20192;-67
2022/05/11 04:20:17;;;;;;;5.93;2.83;;;17.90;99.90;;;;;;5091449;28;20175;-68
2022/05/11 04:22:45;;;;;;;8.53;2.20;;;17.90;99.90;;;;;;5091529;28;20179;-68
2022/05/11 04:25:16;;;;;;;8.53;2.23;;;17.80;99.90;;;;;;5091567;28;20665;-68
2022/05/11 04:27:46;;;;;;;7.90;2.27;;;17.80;99.90;;;;;;5091594;28;20186;-68
2022/05/11 04:30:17;;;;;;;7.37;2.50;;;17.80;99.90;;;;;;5092962;28;20178;-68
2022/05/11 04:32:45;;;;;;;10.20;2.80;;;17.80;99.90;;;;;;5095161;28;20203;-68
2022/05/11 04:35:13;;;;;;;7.67;2.63;;;17.80;99.90;;;;;;5095260;28;20500;-68
2022/05/11 04:37:41;;;;;;;8.57;2.60;;;17.90;99.90;;;;;;5095237;28;20175;-68
2022/05/11 04:40:11;;;;;;;8.70;2.43;;;17.90;99.90;;;;;;5094030;28;20195;-67
2022/05/11 04:42:39;;;;;;;7.47;2.37;;;17.80;99.90;;;;;;5094948;28;20168;-68
2022/05/11 04:45:07;;;;;;;7.87;2.33;;;17.80;99.90;;;;;;5095116;28;20197;-67
2022/05/11 04:47:35;;;;;;;11.40;2.50;;;17.90;99.90;;;;;;5094969;28;20179;-68
2022/05/11 04:50:03;;;;;;;5.47;2.73;;;17.80;99.90;;;;;;5094135;28;20179;-67
2022/05/11 04:52:31;;;;;;;10.83;4.23;;;17.80;99.90;;;;;;5093177;28;20680;-68
2022/05/11 04:54:59;;;;;;;13.23;6.03;;;17.80;99.90;;;;;;5094274;28;20309;-67
2022/05/11 04:57:27;;;;;;;15.80;6.83;;;17.80;99.90;;;;;;5094822;28;20539;-67
2022/05/11 04:59:56;;;;;;;11.57;6.23;;;17.80;99.90;;;;;;5094480;28;20176;-68
2022/05/11 05:02:27;;;;;;;15.63;8.23;;;17.80;99.90;;;;;;5093590;28;20290;-67
2022/05/11 05:05:00;;;;;;;12.37;6.93;;;17.80;99.90;;;;;;5094296;28;20285;-68
2022/05/11 05:07:28;;;;;;;16.07;7.23;;;17.80;99.90;;;;;;5093828;28;20266;-69
2022/05/11 05:09:56;;;;;;;12.80;7.23;;;17.80;99.90;;;;;;5093960;28;20180;-67
2022/05/11 05:12:24;;;;;;;13.20;7.27;;;17.80;99.90;;;;;;5094155;28;20695;-69
2022/05/11 05:14:51;;;;;;;18.03;7.27;;;17.80;99.90;;;;;;5094931;28;20187;-69
2022/05/11 05:17:19;;;;;;;13.33;6.40;;;17.80;99.90;;;;;;5095692;28;20170;-68
2022/05/11 05:19:47;;;;;;;8.80;4.37;;;17.80;99.90;;;;;;5095095;28;20194;-69
2022/05/11 05:22:16;;;;;;;11.63;4.33;;;17.80;99.90;;;;;;5095099;28;20229;-69
2022/05/11 05:24:45;;;;;;;8.23;4.03;;;17.90;99.90;;;;;;5095283;28;20175;-71
2022/05/11 05:27:15;;;;;;;10.93;4.37;;;17.90;99.90;;;;;;5095580;28;20659;-69
2022/05/11 05:32:40;;;;;;;9.80;3.23;;;17.90;99.90;;;;;;5095896;28;20281;-69
2022/05/11 05:35:11;;;;;;;10.87;3.43;;;17.80;99.90;;;;;;5095308;28;20175;-69
2022/05/11 05:37:39;;;;;;;9.13;3.00;;;17.70;99.90;;;;;;5093932;28;20226;-69
2022/05/11 05:40:08;;;;;;;11.10;3.80;;;17.70;99.90;;;;;;5094905;28;20186;-69
2022/05/11 05:42:36;;;;;;;11.40;4.20;;;17.60;99.90;;;;;;5094951;28;20167;-69
2022/05/11 05:45:05;;;;;;;8.97;3.33;;;17.60;99.90;;;;;;5094976;28;20189;-71
2022/05/11 05:47:33;;;;;;;6.73;2.60;;;17.60;99.90;;;;;;5094994;28;20171;-69
2022/05/11 05:50:01;;;;;;;9.00;2.70;;;17.50;99.90;;;;;;5094735;28;20509;-69
2022/05/11 05:52:29;;;;;;;12.57;3.33;;;17.40;99.90;;;;;;5093712;28;20577;-70
2022/05/11 05:54:58;;;;;;;11.93;3.80;;;17.30;99.90;;;;;;5094559;28;20712;-69
2022/05/11 05:57:27;;;;;;;8.87;3.53;;;17.40;99.90;;;;;;5094655;28;20171;-69
2022/05/11 05:59:55;;;;;;;15.03;3.17;;;17.40;99.90;;;;;;5094486;28;20277;-69
2022/05/11 06:02:23;;;;;;;10.57;3.03;;;17.40;99.90;;;;;;5093151;28;20254;-68
2022/05/11 06:04:51;;;;;;;12.53;3.67;;;17.40;99.90;;;;;;5094364;28;20179;-67
2022/05/11 06:07:21;;;;;;;8.73;3.03;;;17.30;99.90;;;;;;5093228;28;20572;-68
2022/05/11 06:09:50;;;;;;;12.10;2.63;;;17.30;99.90;;;;;;5094429;28;20214;-69
2022/05/11 06:12:18;;;;;;;15.80;3.10;;;17.30;99.90;;;;;;5094434;28;20207;-68
2022/05/11 06:14:45;;;;;;;10.27;3.33;;;17.20;99.90;;;;;;5094342;28;20619;-69
2022/05/11 06:17:17;;;;;;;9.73;2.90;;;17.20;99.90;;;;;;5093996;28;20175;-68
2022/05/11 06:19:45;;;;;;;12.93;3.00;;;17.20;99.90;;;;;;5094308;28;20189;-69
2022/05/11 06:22:13;;;;;;;7.63;2.70;;;17.20;99.90;;;;;;5094057;28;20603;-68
2022/05/11 06:24:41;;;;;;;10.20;3.37;;;17.20;99.90;;;;;;5094414;28;20176;-69
2022/05/11 06:27:15;;;;;;;9.63;2.90;;;17.20;99.90;;;;;;5094361;28;20542;-68
2022/05/11 06:29:50;;;;;;;8.10;2.70;;;17.20;99.90;;;;;;5094125;28;20183;-68
2022/05/11 06:32:19;;;;;;;14.93;2.87;;;17.20;99.90;;;;;;5094048;28;20214;-70
2022/05/11 06:34:47;;;;;;;8.33;3.00;;;17.20;99.90;;;;;;5094850;28;20262;-69
2022/05/11 06:37:15;;;;;;;9.60;3.17;;;17.20;99.90;;;;;;5094172;28;20316;-69
2022/05/11 06:39:43;;;;;;;10.57;2.93;;;17.10;99.90;;;;;;5093940;28;20180;-69
2022/05/11 06:42:13;;;;;;;9.17;3.07;;;17.10;99.90;;;;;;5093853;28;20218;-69
2022/05/11 06:44:41;;;;;;;10.37;3.23;;;17.10;99.90;;;;;;5093894;28;20179;-68
2022/05/11 06:47:09;;;;;;;10.90;2.97;;;17.10;99.90;;;;;;5093661;28;20167;-68
2022/05/11 06:49:37;;;;;;;6.87;2.97;;;17.10;99.90;;;;;;5093878;28;20264;-68
2022/05/11 06:52:05;;;;;;;9.07;2.93;;;17.10;99.90;;;;;;5094759;28;20254;-68
2022/05/11 07:00:05;;;;;;;11.10;2.83;;;17.00;99.90;;;;;;5094498;28;20585;-68
2022/05/11 07:02:34;;;;;;;7.83;3.03;;;17.00;99.90;;;;;;5093501;28;20232;-69
2022/05/11 07:05:02;;;;;;;10.47;3.03;;;17.00;99.90;;;;;;5093575;28;20187;-69
2022/05/11 07:07:30;;;;;;;6.60;3.17;;;17.00;99.90;;;;;;5092318;28;20183;-69
2022/05/11 07:09:57;;;;;;;11.63;2.80;;;17.00;99.90;;;;;;5093511;28;20262;-69
2022/05/11 07:13:07;;;;;;;11.23;3.30;;;17.00;99.90;;;;;;5093459;28;20676;-70
2022/05/11 07:15:18;;;;;;;12.10;2.80;;;16.90;99.90;;;;;;5084978;28;20191;-70
2022/05/11 07:17:52;;;;;;;8.13;3.30;;;17.00;99.90;;;;;;5093313;28;20179;-69
2022/05/11 07:20:29;;;;;;;9.23;3.67;;;17.00;99.90;;;;;;5093359;28;20572;-69
2022/05/11 07:22:57;;;;;;;8.97;3.43;;;17.00;99.90;;;;;;5093266;28;20660;-68
2022/05/11 07:25:27;;;;;;;9.57;3.50;;;16.90;99.90;;;;;;5093386;28;20175;-69
2022/05/11 07:27:57;;;;;;;7.77;3.53;;;17.00;99.90;;;;;;5093433;28;20193;-70
2022/05/11 07:30:32;;;;;;;10.33;4.30;;;17.00;99.90;;;;;;5093695;28;20306;-69
2022/05/11 07:33:01;;;;;;;13.23;3.47;;;17.00;99.90;;;;;;5092090;28;20217;-71
2022/05/11 07:35:30;;;;;;;11.13;4.23;;;17.00;99.90;;;;;;5093463;28;20171;-70
2022/05/11 07:37:59;;;;;;;11.33;4.20;;;17.00;99.90;;;;;;5093346;28;20536;-69
2022/05/11 07:40:27;;;;;;;13.23;4.07;;;17.00;99.90;;;;;;5093956;28;20235;-68
2022/05/11 07:42:55;;;;;;;18.23;3.83;;;17.00;99.90;;;;;;5093127;28;20656;-68
2022/05/11 07:45:23;;;;;;;9.73;3.57;;;16.90;99.90;;;;;;5093699;28;20525;-68
2022/05/11 07:47:51;;;;;;;12.40;3.70;;;16.90;99.90;;;;;;5093343;28;20203;-69
2022/05/11 07:50:19;;;;;;;9.17;3.60;;;16.90;99.90;;;;;;5091992;28;20187;-69
2022/05/11 07:52:48;;;;;;;9.07;3.30;;;16.90;99.90;;;;;;5093206;28;20734;-68
2022/05/11 07:55:17;;;;;;;10.60;3.80;;;16.80;99.90;;;;;;5092958;28;20231;-69
2022/05/11 08:00:31;;;;;;;8.97;3.93;;;16.80;99.90;;;;;;5093485;28;20185;-69
2022/05/11 08:02:59;;;;;;;8.23;4.40;;;16.80;99.90;;;;;;5092866;28;20176;-68
2022/05/11 08:05:27;;;;;;;9.13;4.00;;;16.80;99.90;;;;;;5096941;28;20171;-68
2022/05/11 08:07:58;;;;;;;8.97;3.27;;;16.80;99.90;;;;;;5097016;28;20633;-68
2022/05/11 08:10:34;;;;;;;9.10;3.40;;;16.70;99.90;;;;;;5096908;28;20262;-68
2022/05/11 08:13:05;;;;;;;11.53;3.00;;;16.70;99.90;;;;;;5095708;28;20195;-68
2022/05/11 08:15:35;;;;;;;12.43;6.10;;;16.70;99.90;;;;;;5095529;28;20563;-68
2022/05/11 08:18:04;;;;;;;14.97;5.43;;;16.70;99.90;;;;;;5096697;28;20260;-69
2022/05/11 08:20:36;;;;;;;9.80;3.77;;;16.70;99.90;;;;;;5096797;28;20212;-68
2022/05/11 08:23:05;;;;;;;6.47;4.70;;;16.70;99.90;;;;;;5095816;28;20179;-68
2022/05/11 08:25:35;;;;;;;8.30;3.97;;;16.70;99.90;;;;;;5096570;28;20187;-69
2022/05/11 08:28:09;;;;;;;7.80;3.83;;;16.70;99.90;;;;;;5096697;28;20199;-69
2022/05/11 08:33:27;;;;;;;9.27;3.13;;;16.80;99.90;;;;;;5096550;28;20231;-69
2022/05/11 08:35:59;;;;;;;10.53;3.40;;;16.70;99.90;;;;;;5096443;28;20181;-69
2022/05/11 08:38:30;;;;;;;7.47;3.50;;;16.70;99.90;;;;;;5095256;28;20236;-68
2022/05/11 08:41:01;;;;;;;10.27;3.10;;;16.70;99.90;;;;;;5096682;28;20175;-69
2022/05/11 08:43:32;;;;;;;8.40;2.83;;;16.70;99.90;;;;;;5096563;28;20175;-69
2022/05/11 08:46:07;;;;;;;8.30;3.83;;;16.70;99.90;;;;;;5096315;28;20679;-69
2022/05/11 08:48:52;;;;;;;14.37;5.97;;;16.70;99.90;;;;;;5096053;28;20193;-69
2022/05/11 08:51:35;;;;;;;10.80;6.17;;;16.70;99.90;;;;;;5096144;28;20224;-69
2022/05/11 08:54:22;;;;;;;14.27;5.00;;;16.70;99.90;;;;;;5096033;28;20209;-69
2022/05/11 08:56:53;;;;;;;17.93;5.67;;;16.70;99.90;;;;;;5095989;28;20258;-69
2022/05/11 08:59:25;;;;;;;18.63;7.57;;;16.70;99.90;;;;;;5096141;28;20205;-69
2022/05/11 09:01:58;;;;;;;11.60;4.23;;;16.70;99.90;;;;;;5095948;28;20177;-69
2022/05/11 09:04:55;;;;;;;7.40;4.10;;;16.80;99.90;;;;;;5096122;28;20203;-68
2022/05/11 09:07:23;;;;;;;9.17;3.67;;;16.70;99.90;;;;;;5094833;28;20190;-69
2022/05/11 09:09:53;;;;;;;10.37;4.53;;;16.70;99.90;;;;;;5095859;28;20176;-68
2022/05/11 09:12:22;;;;;;;12.40;4.23;;;16.70;99.90;;;;;;5096044;28;20199;-69
2022/05/11 09:14:59;;;;;;;8.40;3.47;;;16.70;99.90;;;;;;5095356;28;20185;-69
2022/05/11 09:17:37;;;;;;;12.23;3.57;;;16.70;99.90;;;;;;5095621;28;20183;-69
2022/05/11 09:20:07;;;;;;;19.57;9.07;;;16.70;99.90;;;;;;5095670;28;20663;-70
2022/05/11 09:22:40;;;;;;;19.37;10.90;;;16.70;99.90;;;;;;5095757;28;20171;-69
2022/05/11 09:25:27;;;;;;;17.17;6.33;;;16.60;99.90;;;;;;5095606;28;20183;-69
2022/05/11 09:28:14;;;;;;;7.00;3.70;;;16.60;99.90;;;;;;5095853;28;20258;-70
2022/05/11 09:31:06;;;;;;;9.07;4.03;;;16.60;99.90;;;;;;5095691;28;20168;-69
2022/05/11 09:33:39;;;;;;;11.73;3.40;;;16.60;99.90;;;;;;5095291;28;20227;-69
2022/05/11 09:36:10;;;;;;;10.40;3.90;;;16.60;99.90;;;;;;5095793;28;20175;-70
2022/05/11 09:38:41;;;;;;;8.80;3.10;;;16.60;99.90;;;;;;5095489;28;20179;-69
2022/05/11 09:41:18;;;;;;;11.90;4.20;;;16.60;99.90;;;;;;5095394;28;20270;-69
2022/05/11 09:43:58;;;;;;;12.43;3.37;;;16.60;99.90;;;;;;5093958;28;20171;-69
2022/05/11 09:46:33;;;;;;;6.73;3.43;;;16.60;99.90;;;;;;5095211;28;20174;-69
2022/05/11 09:49:15;;;;;;;11.07;3.53;;;16.60;99.90;;;;;;5095059;28;20175;-70
2022/05/11 09:51:50;;;;;;;5.67;3.27;;;16.60;99.90;;;;;;5095598;28;20202;-69
2022/05/11 09:54:32;;;;;;;10.73;3.83;;;16.60;99.90;;;;;;5093714;28;20228;-69
2022/05/11 09:57:13;;;;;;;10.30;4.20;;;16.60;99.90;;;;;;5093724;28;20198;-69
2022/05/11 09:59:43;;;;;;;13.60;4.37;;;16.50;99.90;;;;;;5095112;28;20580;-69
2022/05/11 10:02:35;;;;;;;10.20;3.67;;;16.50;99.90;;;;;;5094754;28;20178;-69
2022/05/11 10:05:06;;;;;;;11.23;3.77;;;16.50;99.90;;;;;;5095205;28;20183;-69
2022/05/11 10:07:40;;;;;;;12.63;4.07;;;16.50;99.90;;;;;;5095169;28;20251;-69
2022/05/11 10:10:55;;;;;;;9.87;3.30;;;16.50;99.90;;;;;;5094806;28;20195;-69
2022/05/11 10:13:33;;;;;;;12.07;3.73;;;16.50;99.90;;;;;;5094841;28;20301;-69
2022/05/11 10:21:56;;;;;;;11.03;3.60;;;16.40;99.90;;;;;;5094520;28;20190;-69
2022/05/11 10:24:51;;;;;;;13.27;3.50;;;16.50;99.90;;;;;;5094737;28;20210;-69
2022/05/11 10:27:36;;;;;;;10.43;4.10;;;16.50;99.90;;;;;;5085020;28;20226;-68
2022/05/11 10:30:12;;;;;;;14.53;4.40;;;16.40;99.90;;;;;;5094432;28;20202;-69
2022/05/11 10:32:49;;;;;;;8.40;3.53;;;16.50;99.90;;;;;;5094532;28;20535;-68
2022/05/11 10:35:45;;;;;;;11.80;3.63;;;16.40;99.90;;;;;;5094393;28;20676;-68
2022/05/11 10:38:33;;;;;;;12.80;4.00;;;16.40;99.90;;;;;;5094086;28;20168;-68
2022/05/11 10:41:13;;;;;;;11.37;4.03;;;16.40;99.90;;;;;;5094328;28;20183;-69
2022/05/11 10:43:58;;;;;;;5.43;3.57;;;16.40;99.90;;;;;;5093099;28;20181;-68
2022/05/11 10:46:29;;;;;;;9.63;3.77;;;16.40;99.90;;;;;;5094383;28;20220;-69
2022/05/11 10:49:02;;;;;;;10.47;3.83;;;16.40;99.90;;;;;;5094061;28;20171;-69
2022/05/11 10:51:38;;;;;;;9.53;4.17;;;16.40;99.90;;;;;;5093852;28;20193;-68
2022/05/11 10:54:39;;;;;;;10.93;4.10;;;16.40;99.90;;;;;;5092710;28;20230;-69
2022/05/11 10:57:33;;;;;;;10.40;3.60;;;16.50;99.90;;;;;;5093937;28;20183;-68
2022/05/11 11:00:16;;;;;;;13.03;4.27;;;16.40;99.90;;;;;;5092496;28;20179;-68
2022/05/11 11:02:52;;;;;;;14.13;4.57;;;16.40;99.90;;;;;;5093928;28;20224;-69
2022/05/11 11:05:31;;;;;;;12.70;4.40;;;16.40;99.90;;;;;;5093940;28;20174;-68
2022/05/11 11:08:33;;;;;;;13.07;4.83;;;16.50;99.90;;;;;;5093988;28;20179;-68
2022/05/11 11:11:13;;;;;;;13.77;4.80;;;16.50;99.90;;;;;;5092931;28;20205;-68
2022/05/11 11:13:50;;;;;;;12.27;4.13;;;16.50;99.90;;;;;;5090532;28;20229;-69
2022/05/11 11:16:18;;;;;;;7.87;4.67;;;16.40;99.90;;;;;;5091335;28;20183;-68
2022/05/11 11:18:50;;;;;;;11.87;5.00;;;16.50;99.90;;;;;;5092995;28;20187;-69
2022/05/11 11:21:20;;;;;;;11.03;4.13;;;16.50;99.90;;;;;;5093180;28;20191;-69
2022/05/11 11:24:17;;;;;;;16.17;5.07;;;16.40;99.90;;;;;;5091303;28;20198;-68
2022/05/11 11:26:53;;;;;;;10.87;4.60;;;16.40;99.90;;;;;;5092913;28;20201;-69
2022/05/11 11:29:25;;;;;;;14.77;4.87;;;16.50;99.90;;;;;;5073134;28;20177;-68
2022/05/11 11:31:58;;;;;;;13.80;4.93;;;16.40;99.90;;;;;;5073458;28;20263;-67
2022/05/11 11:34:31;;;;;;;11.97;4.70;;;16.50;99.90;;;;;;5073185;28;20187;-68
2022/05/11 11:37:19;;;;;;;10.50;4.80;;;16.40;99.90;;;;;;5090058;28;20179;-69
2022/05/11 11:40:16;;;;;;;10.70;4.60;;;16.40;99.90;;;;;;5078057;28;20186;-68
2022/05/11 11:42:45;;;;;;;11.80;4.80;;;16.40;99.90;;;;;;5065738;28;20592;-68
2022/05/11 11:45:32;;;;;;;11.30;4.30;;;16.40;99.90;;;;;;5081416;28;20172;-68
2022/05/11 11:48:19;;;;;;;9.03;4.40;;;16.40;99.90;;;;;;5098135;28;20182;-68
2022/05/11 11:50:50;;;;;;;9.87;3.90;;;16.40;99.90;;;;;;5100020;28;20235;-68
2022/05/11 11:53:32;;;;;;;8.60;4.67;;;16.40;99.90;;;;;;5100092;28;20255;-70
2022/05/11 11:56:23;;;;;;;9.80;4.07;;;16.40;99.90;;;;;;5099318;28;20299;-67
2022/05/11 11:59:05;;;;;;;10.30;4.20;;;16.30;99.90;;;;;;5099462;28;20295;-68
2022/05/11 12:01:43;;;;;;;10.43;4.30;;;16.30;99.90;;;;;;5079589;28;20238;-68
2022/05/11 12:04:33;;;;;;;10.20;4.50;;;16.30;99.90;;;;;;5079722;28;20262;-68
2022/05/11 12:15:34;;;;;;;14.90;4.57;;;16.30;99.90;;;;;;5103566;28;20235;-68
2022/05/11 12:18:20;;;;;;;11.93;3.90;;;16.30;99.90;;;;;;5099883;28;20182;-69
2022/05/11 12:20:47;;;;;;;10.33;4.30;;;16.20;99.90;;;;;;5099435;28;20194;-68
2022/05/11 12:23:36;;;;;;;10.53;4.77;;;16.30;99.90;;;;;;5092413;28;20186;-69
2022/05/11 12:26:10;;;;;;;8.17;4.20;;;16.30;99.90;;;;;;5099656;28;20177;-69
2022/05/11 12:28:44;;;;;;;14.83;4.73;;;16.30;99.90;;;;;;5099647;28;20179;-69
2022/05/11 12:31:31;;;;;;;11.30;4.17;;;16.20;99.90;;;;;;5099802;28;20174;-69
2022/05/11 12:33:59;;;;;;;7.43;4.07;;;16.20;99.90;;;;;;5099339;28;20214;-69
2022/05/11 12:36:37;;;;;;;9.83;3.97;;;16.20;99.90;;;;;;5099580;28;20175;-69
2022/05/11 12:39:05;;;;;;;11.57;4.47;;;16.30;99.90;;;;;;5099565;28;20258;-69
2022/05/11 12:41:33;;;;;;;12.97;3.90;;;16.30;99.90;;;;;;5098654;28;20264;-68
2022/05/11 12:44:12;;;;;;;9.43;4.33;;;16.30;99.90;;;;;;5098842;28;20183;-68
2022/05/11 12:46:42;;;;;;;7.53;4.37;;;16.30;99.90;;;;;;5099086;28;20194;-70
2022/05/11 12:49:14;;;;;;;12.83;4.57;;;16.30;99.90;;;;;;5099119;28;20172;-69
2022/05/11 12:51:50;;;;;;;11.80;4.20;;;16.30;99.90;;;;;;5094968;28;20217;-69
2022/05/11 12:54:21;;;;;;;13.30;4.83;;;16.30;99.90;;;;;;5096117;28;20636;-68
2022/05/11 12:57:02;;;;;;;9.90;4.77;;;16.30;99.90;;;;;;5095623;28;20276;-69
2022/05/11 12:59:32;;;;;;;6.40;3.27;;;16.30;99.90;;;;;;5095592;28;20175;-69
2022/05/11 13:02:26;;;;;;;6.23;3.90;;;16.40;99.90;;;;;;5095648;28;20191;-69
2022/05/11 13:05:00;;;;;;;9.60;4.17;;;16.30;99.90;;;;;;5095952;28;20749;-68
2022/05/11 13:08:00;;;;;;;8.73;4.17;;;16.40;99.90;;;;;;5095434;28;20247;-69
2022/05/11 13:10:38;;;;;;;7.80;3.80;;;16.40;99.90;;;;;;5091610;28;20191;-69
2022/05/11 13:13:14;;;;;;;13.00;4.43;;;16.40;99.90;;;;;;5095575;28;20215;-68
2022/05/11 13:15:45;;;;;;;11.93;5.47;;;16.40;99.90;;;;;;5095982;28;20253;-68
2022/05/11 13:18:28;;;;;;;13.27;4.77;;;16.40;99.90;;;;;;5095374;28;20183;-69
2022/05/11 13:21:00;;;;;;;10.33;4.47;;;16.40;99.90;;;;;;5095937;28;20175;-68
2022/05/11 13:23:38;;;;;;;11.90;4.53;;;16.40;99.90;;;;;;5095782;28;20315;-68
2022/05/11 13:26:09;;;;;;;10.43;4.23;;;16.40;99.90;;;;;;5095506;28;20175;-69
2022/05/11 13:28:42;;;;;;;9.03;4.20;;;16.50;99.90;;;;;;5094911;28;20171;-68
2022/05/11 13:31:26;;;;;;;8.07;4.43;;;16.50;99.90;;;;;;5095413;28;20179;-69
2022/05/11 13:33:54;;;;;;;12.57;4.17;;;16.40;99.90;;;;;;5094604;28;20207;-68
2022/05/11 13:36:30;;;;;;;15.53;4.70;;;16.40;99.90;;;;;;5094319;28;20179;-67
2022/05/11 13:38:57;;;;;;;13.47;4.20;;;16.40;99.90;;;;;;5094931;28;20182;-68
2022/05/11 13:41:37;;;;;;;9.93;4.80;;;16.50;99.90;;;;;;5093858;28;20183;-68
2022/05/11 13:44:15;;;;;;;12.83;5.43;;;16.50;99.90;;;;;;5091885;28;20643;-68
2022/05/11 13:49:31;;;;;;;9.63;4.10;;;16.50;99.90;;;;;;5091609;28;20561;-68